Hébergeur de fichiers indépendant

RANDO DES ROIS 2018.gpx

À propos

Type de fichier
Fichier GPX de 27 Ko (application/xml)
Confidentialité
Fichier public, envoyé le 16 octobre 2017 à 10:20, depuis l'adresse IP 132.169.x.x (France)
Sécurité
Ne contient aucun Virus ou Malware connus - Dernière vérification: 2 jours
Statistiques
La présente page de téléchargement a été vue 401 fois depuis l'envoi du fichier
Page de téléchargement

Aperçu du fichier


<?xml version="1.0" encoding="utf-8"?><gpx creator="Garmin Desktop App" version="1.1" xsi:schemaLocation="http://www.topografix.com/GPX/1/1 http://www.topografix.com/GPX/1/1/gpx.xsd http://www.garmin.com/xmlschemas/WaypointExtension/v1 http://www8.garmin.com/xmlschemas/WaypointExtensionv1.xsd http://www.garmin.com/xmlschemas/TrackPointExtension/v1 http://www.garmin.com/xmlschemas/TrackPointExtensionv1.xsd http://www.garmin.com/xmlschemas/GpxExtensions/v3 http://www8.garmin.com/xmlschemas/GpxExtensionsv3.xsd http://www.garmin.com/xmlschemas/ActivityExtension/v1 http://www8.garmin.com/xmlschemas/ActivityExtensionv1.xsd http://www.garmin.com/xmlschemas/AdventuresExtensions/v1 http://www8.garmin.com/xmlschemas/AdventuresExtensionv1.xsd http://www.garmin.com/xmlschemas/PressureExtension/v1 http://www.garmin.com/xmlschemas/PressureExtensionv1.xsd http://www.garmin.com/xmlschemas/TripExtensions/v1 http://www.garmin.com/xmlschemas/TripExtensionsv1.xsd http://www.garmin.com/xmlschemas/TripMetaDataExtensions/v1 http://www.garmin.com/xmlschemas/TripMetaDataExtensionsv1.xsd http://www.garmin.com/xmlschemas/ViaPointTransportationModeExtensions/v1 http://www.garmin.com/xmlschemas/ViaPointTransportationModeExtensionsv1.xsd http://www.garmin.com/xmlschemas/CreationTimeExtension/v1 http://www.garmin.com/xmlschemas/CreationTimeExtensionsv1.xsd http://www.garmin.com/xmlschemas/AccelerationExtension/v1 http://www.garmin.com/xmlschemas/AccelerationExtensionv1.xsd http://www.garmin.com/xmlschemas/PowerExtension/v1 http://www.garmin.com/xmlschemas/PowerExtensionv1.xsd http://www.garmin.com/xmlschemas/VideoExtension/v1 http://www.garmin.com/xmlschemas/VideoExtensionv1.xsd" xmlns="http://www.topografix.com/GPX/1/1" xmlns:xsi="http://www.w3.org/2001/XMLSchema-instance" xmlns:wptx1="http://www.garmin.com/xmlschemas/WaypointExtension/v1" xmlns:gpxtrx="http://www.garmin.com/xmlschemas/GpxExtensions/v3" xmlns:gpxtpx="http://www.garmin.com/xmlschemas/TrackPointExtension/v1" xmlns:gpxx="http://www.garmin.com/xmlschemas/GpxExtensions/v3" xmlns:trp="http://www.garmin.com/xmlschemas/TripExtensions/v1" xmlns:adv="http://www.garmin.com/xmlschemas/AdventuresExtensions/v1" xmlns:prs="http://www.garmin.com/xmlschemas/PressureExtension/v1" xmlns:tmd="http://www.garmin.com/xmlschemas/TripMetaDataExtensions/v1" xmlns:vptm="http://www.garmin.com/xmlschemas/ViaPointTransportationModeExtensions/v1" xmlns:ctx="http://www.garmin.com/xmlschemas/CreationTimeExtension/v1" xmlns:gpxacc="http://www.garmin.com/xmlschemas/AccelerationExtension/v1" xmlns:gpxpx="http://www.garmin.com/xmlschemas/PowerExtension/v1" xmlns:vidx1="http://www.garmin.com/xmlschemas/VideoExtension/v1">

  <metadata>
    <link href="http://www.garmin.com">
      <text>Garmin International</text>
    </link>
    <time>2017-10-12T16:19:15Z</time>
    <bounds maxlat="44.17682820931077" maxlon="4.709207424893975" minlat="44.149733958765864" minlon="4.664028212428093" />
  </metadata>

  <trk>
    <name>RANDO DES ROIS 2018</name>
    <extensions>
      <gpxx:TrackExtension>
        <gpxx:DisplayColor>Red</gpxx:DisplayColor>
      </gpxx:TrackExtension>
    </extensions>
    <trkseg>
      <trkpt lat="44.149778885766864" lon="4.681499786674976">
        <ele>44.840000000000003</ele>
        <time>2017-10-06T14:36:19Z</time>
      </trkpt>
      <trkpt lat="44.149733958765864" lon="4.682692447677255">
        <ele>45.799999999999997</ele>
        <time>2017-10-06T14:37:06Z</time>
      </trkpt>
      <trkpt lat="44.149864884093404" lon="4.683990888297558">
        <ele>43.399999999999999</ele>
        <time>2017-10-06T14:38:22Z</time>
      </trkpt>
      <trkpt lat="44.150443989783525" lon="4.68484659679234">
        <ele>42.439999999999998</ele>
        <time>2017-10-06T14:38:47Z</time>
      </trkpt>
      <trkpt lat="44.151224931702018" lon="4.685530727729201">
        <ele>44.359999999999999</ele>
        <time>2017-10-06T14:39:10Z</time>
      </trkpt>
      <trkpt lat="44.152128417044878" lon="4.685955857858062">
        <ele>51.090000000000003</ele>
        <time>2017-10-06T14:39:34Z</time>
      </trkpt>
      <trkpt lat="44.153037602081895" lon="4.686251068487763">
        <ele>54.93</ele>
        <time>2017-10-06T14:39:58Z</time>
      </trkpt>
      <trkpt lat="44.152964930981398" lon="4.687441717833281">
        <ele>54.450000000000003</ele>
        <time>2017-10-06T14:40:21Z</time>
      </trkpt>
      <trkpt lat="44.152979431673884" lon="4.688688945025206">
        <ele>56.859999999999999</ele>
        <time>2017-10-06T14:40:43Z</time>
      </trkpt>
      <trkpt lat="44.153339685872197" lon="4.689893256872892">
        <ele>61.18</ele>
        <time>2017-10-06T14:41:10Z</time>
      </trkpt>
      <trkpt lat="44.153563817963004" lon="4.691171161830425">
        <ele>67.909999999999997</ele>
        <time>2017-10-06T14:41:41Z</time>
      </trkpt>
      <trkpt lat="44.153608996421099" lon="4.692458873614669">
        <ele>74.640000000000001</ele>
        <time>2017-10-06T14:42:14Z</time>
      </trkpt>
      <trkpt lat="44.153450075536966" lon="4.693767959252">
        <ele>80.890000000000001</ele>
        <time>2017-10-06T14:42:51Z</time>
      </trkpt>
      <trkpt lat="44.1530666872859" lon="4.695019377395511">
        <ele>81.849999999999994</ele>
        <time>2017-10-06T14:43:28Z</time>
      </trkpt>
      <trkpt lat="44.153030980378389" lon="4.696988202631474">
        <ele>94.829999999999998</ele>
        <time>2017-10-06T14:46:30Z</time>
      </trkpt>
      <trkpt lat="44.152399571612477" lon="4.697180148214102">
        <ele>81.849999999999994</ele>
        <time>2017-10-06T14:47:51Z</time>
      </trkpt>
      <trkpt lat="44.152263617143035" lon="4.698065025731921">
        <ele>84.730000000000004</ele>
        <time>2017-10-06T14:48:36Z</time>
      </trkpt>
      <trkpt lat="44.152886979281902" lon="4.698609514161944">
        <ele>95.790000000000006</ele>
        <time>2017-10-06T14:49:30Z</time>
      </trkpt>
      <trkpt lat="44.152770387008786" lon="4.700050111860037">
        <ele>97.230000000000004</ele>
        <time>2017-10-06T14:50:18Z</time>
      </trkpt>
      <trkpt lat="44.152515241876245" lon="4.701198264956474">
        <ele>94.829999999999998</ele>
        <time>2017-10-06T14:50:51Z</time>
      </trkpt>
      <trkpt lat="44.152108887210488" lon="4.702525539323688">
        <ele>92.900000000000006</ele>
        <time>2017-10-06T14:51:27Z</time>
      </trkpt>
      <trkpt lat="44.151255944743752" lon="4.702904066070914">
        <ele>90.019999999999996</ele>
        <time>2017-10-06T14:51:54Z</time>
      </trkpt>
      <trkpt lat="44.150681784376502" lon="4.703431790694594">
        <ele>88.099999999999994</ele>
        <time>2017-10-06T14:52:21Z</time>
      </trkpt>
      <trkpt lat="44.151060981675982" lon="4.704485731199384">
        <ele>96.75</ele>
        <time>2017-10-06T14:53:50Z</time>
      </trkpt>
      <trkpt lat="44.150770381093025" lon="4.705957174301148">
        <ele>108.29000000000001</ele>
        <time>2017-10-06T14:54:53Z</time>
      </trkpt>
      <trkpt lat="44.150900803506374" lon="4.707241030409932">
        <ele>112.61</ele>
        <time>2017-10-06T14:55:47Z</time>
      </trkpt>
      <trkpt lat="44.15176447480917" lon="4.707857854664326">
        <ele>107.81</ele>
        <time>2017-10-06T14:56:16Z</time>
      </trkpt>
      <trkpt lat="44.152577100321651" lon="4.70855531282723">
        <ele>102.04000000000001</ele>
        <time>2017-10-06T14:56:31Z</time>
      </trkpt>
      <trkpt lat="44.153524925932288" lon="4.708881201222539">
        <ele>95.790000000000006</ele>
        <time>2017-10-06T14:56:47Z</time>
      </trkpt>
      <trkpt lat="44.154469314962626" lon="4.708961918950081">
        <ele>97.709999999999994</ele>
        <time>2017-10-06T14:57:10Z</time>
      </trkpt>
      <trkpt lat="44.155393084511161" lon="4.70868431031704">
        <ele>96.269999999999996</ele>
        <time>2017-10-06T14:57:43Z</time>
      </trkpt>
      <trkpt lat="44.156236220151186" lon="4.708027672022581">
        <ele>97.230000000000004</ele>
        <time>2017-10-06T14:58:12Z</time>
      </trkpt>
      <trkpt lat="44.157045744359493" lon="4.708632510155439">
        <ele>99.150000000000006</ele>
        <time>2017-10-06T14:58:35Z</time>
      </trkpt>
      <trkpt lat="44.157890053465962" lon="4.709207424893975">
        <ele>100.11</ele>
        <time>2017-10-06T14:59:01Z</time>
      </trkpt>
      <trkpt lat="44.15867761708796" lon="4.708805093541741">
        <ele>98.189999999999998</ele>
        <time>2017-10-06T14:59:32Z</time>
      </trkpt>
      <trkpt lat="44.159480351954699" lon="4.708605101332068">
        <ele>101.56</ele>
        <time>2017-10-06T15:00:03Z</time>
      </trkpt>
      <trkpt lat="44.16035701520741" lon="4.708402762189508">
        <ele>99.150000000000006</ele>
        <time>2017-10-06T15:00:26Z</time>
      </trkpt>
      <trkpt lat="44.161116247996688" lon="4.707696754485369">
        <ele>96.75</ele>
        <time>2017-10-06T15:00:48Z</time>
      </trkpt>
      <trkpt lat="44.161918479949236" lon="4.707064256072044">
        <ele>93.390000000000001</ele>
        <time>2017-10-06T15:01:15Z</time>
      </trkpt>
      <trkpt lat="44.16174572892487" lon="4.706545416265726">
        <ele>102.52</ele>
        <time>2017-10-06T15:04:36Z</time>
      </trkpt>
      <trkpt lat="44.160423818975687" lon="4.7064517904073">
        <ele>132.80000000000001</ele>
        <time>2017-10-06T15:07:49Z</time>
      </trkpt>
      <trkpt lat="44.159001912921667" lon="4.70646302215755">
        <ele>154.91</ele>
        <time>2017-10-06T15:11:38Z</time>
      </trkpt>
      <trkpt lat="44.157629376277328" lon="4.705978631973267">
        <ele>190.96000000000001</ele>
        <time>2017-10-06T15:15:52Z</time>
      </trkpt>
      <trkpt lat="44.15644459426403" lon="4.705121163278818">
        <ele>204.90000000000001</ele>
        <time>2017-10-06T15:18:09Z</time>
      </trkpt>
      <trkpt lat="44.155490314587951" lon="4.705085875466466">
        <ele>212.59</ele>
        <time>2017-10-06T15:19:15Z</time>
      </trkpt>
      <trkpt lat="44.154731165617704" lon="4.705802192911506">
        <ele>210.19</ele>
        <time>2017-10-06T15:19:50Z</time>
      </trkpt>
      <trkpt lat="44.153831284493208" lon="4.705847874283791">
        <ele>210.19</ele>
        <time>2017-10-06T15:20:26Z</time>
      </trkpt>
      <trkpt lat="44.154602000489831" lon="4.705171203240752">
        <ele>216.43000000000001</ele>
        <time>2017-10-06T15:21:11Z</time>
      </trkpt>
      <trkpt lat="44.155472125858068" lon="4.704709947109222">
        <ele>209.22</ele>
        <time>2017-10-06T15:21:30Z</time>
      </trkpt>
      <trkpt lat="44.156236555427313" lon="4.704010058194399">
        <ele>203.94</ele>
        <time>2017-10-06T15:21:51Z</time>
      </trkpt>
      <trkpt lat="44.156467812135816" lon="4.702863497659564">
        <ele>204.90000000000001</ele>
        <time>2017-10-06T15:22:08Z</time>
      </trkpt>
      <trkpt lat="44.156079646199942" lon="4.701706124469638">
        <ele>208.74000000000001</ele>
        <time>2017-10-06T15:22:42Z</time>
      </trkpt>
      <trkpt lat="44.156124405562878" lon="4.70038253813982">
        <ele>207.30000000000001</ele>
        <time>2017-10-06T15:23:07Z</time>
      </trkpt>
      <trkpt lat="44.156254157423973" lon="4.699118547141552">
        <ele>196.25</ele>
        <time>2017-10-06T15:23:26Z</time>
      </trkpt>
      <trkpt lat="44.15708564221859" lon="4.698475822806358">
        <ele>189.52000000000001</ele>
        <time>2017-10-06T15:23:42Z</time>
      </trkpt>
      <trkpt lat="44.157749321311712" lon="4.697575690224767">
        <ele>177.5</ele>
        <time>2017-10-06T15:23:53Z</time>
      </trkpt>
      <trkpt lat="44.158138409256935" lon="4.696371294558048">
        <ele>173.66</ele>
        <time>2017-10-06T15:24:04Z</time>
      </trkpt>
      <trkpt lat="44.15809272788465" lon="4.69516790471971">
        <ele>173.16999999999999</ele>
        <time>2017-10-06T15:24:25Z</time>
      </trkpt>
      <trkpt lat="44.158735955134034" lon="4.694173978641629">
        <ele>165.96000000000001</ele>
        <time>2017-10-06T15:24:39Z</time>
      </trkpt>
      <trkpt lat="44.159012390300632" lon="4.692981485277414">
        <ele>159.24000000000001</ele>
        <time>2017-10-06T15:24:50Z</time>
      </trkpt>
      <trkpt lat="44.158949861302972" lon="4.691713638603687">
        <ele>159.72</ele>
        <time>2017-10-06T15:25:10Z</time>
      </trkpt>
      <trkpt lat="44.158836286514997" lon="4.690523911267519">
        <ele>162.12</ele>
        <time>2017-10-06T15:25:44Z</time>
      </trkpt>
      <trkpt lat="44.158993363380432" lon="4.689240977168083">
        <ele>156.34999999999999</ele>
        <time>2017-10-06T15:26:09Z</time>
      </trkpt>
      <trkpt lat="44.158953968435526" lon="4.687969777733088">
        <ele>151.53999999999999</ele>
        <time>2017-10-06T15:26:31Z</time>
      </trkpt>
      <trkpt lat="44.160031629726291" lon="4.688471769914031">
        <ele>121.73999999999999</ele>
        <time>2017-10-06T15:29:18Z</time>
      </trkpt>
      <trkpt lat="44.16098146699369" lon="4.688853481784463">
        <ele>115.5</ele>
        <time>2017-10-06T15:29:38Z</time>
      </trkpt>
      <trkpt lat="44.161738101392984" lon="4.688474787399173">
        <ele>108.77</ele>
        <time>2017-10-06T15:30:01Z</time>
      </trkpt>
      <trkpt lat="44.162125177681446" lon="4.687452362850308">
        <ele>100.11</ele>
        <time>2017-10-06T15:30:20Z</time>
      </trkpt>
      <trkpt lat="44.162918189540505" lon="4.687489913776517">
        <ele>101.08</ele>
        <time>2017-10-06T15:30:45Z</time>
      </trkpt>
      <trkpt lat="44.163404926657677" lon="4.68864276073873">
        <ele>93.870000000000005</ele>
        <time>2017-10-06T15:30:59Z</time>
      </trkpt>
      <trkpt lat="44.164257533848286" lon="4.68911767937243">
        <ele>90.019999999999996</ele>
        <time>2017-10-06T15:31:13Z</time>
      </trkpt>
      <trkpt lat="44.165041074156761" lon="4.689605673775077">
        <ele>87.140000000000001</ele>
        <time>2017-10-06T15:31:38Z</time>
      </trkpt>
      <trkpt lat="44.165543150156736" lon="4.690724741667509">
        <ele>79.450000000000003</ele>
        <time>2017-10-06T15:31:56Z</time>
      </trkpt>
      <trkpt lat="44.166174056008458" lon="4.691497134044766">
        <ele>74.159999999999997</ele>
        <time>2017-10-06T15:32:15Z</time>
      </trkpt>
      <trkpt lat="44.166934043169022" lon="4.690878633409739">
        <ele>73.680000000000007</ele>
        <time>2017-10-06T15:32:39Z</time>
      </trkpt>
      <trkpt lat="44.167258003726602" lon="4.689649846404791">
        <ele>77.040000000000006</ele>
        <time>2017-10-06T15:33:05Z</time>
      </trkpt>
      <trkpt lat="44.167546257376671" lon="4.688397003337741">
        <ele>79.930000000000007</ele>
        <time>2017-10-06T15:33:35Z</time>
      </trkpt>
      <trkpt lat="44.16786384768784" lon="4.687126893550158">
        <ele>84.25</ele>
        <time>2017-10-06T15:34:11Z</time>
      </trkpt>
      <trkpt lat="44.168781498447061" lon="4.686877112835646">
        <ele>86.180000000000007</ele>
        <time>2017-10-06T15:34:47Z</time>
      </trkpt>
      <trkpt lat="44.169742651283741" lon="4.686864707618952">
        <ele>89.060000000000002</ele>
        <time>2017-10-06T15:35:23Z</time>
      </trkpt>
      <trkpt lat="44.170695506036282" lon="4.68695942312479">
        <ele>92.420000000000002</ele>
        <time>2017-10-06T15:35:58Z</time>
      </trkpt>
      <trkpt lat="44.171645930036902" lon="4.686780888587236">
        <ele>96.269999999999996</ele>
        <time>2017-10-06T15:36:37Z</time>
      </trkpt>
      <trkpt lat="44.172584284096956" lon="4.687096802517772">
        <ele>99.150000000000006</ele>
        <time>2017-10-06T15:37:13Z</time>
      </trkpt>
      <trkpt lat="44.173211250454187" lon="4.688008418306708">
        <ele>100.59999999999999</ele>
        <time>2017-10-06T15:37:39Z</time>
      </trkpt>
      <trkpt lat="44.174046507105231" lon="4.688560953363776">
        <ele>100.59999999999999</ele>
        <time>2017-10-06T15:38:10Z</time>
      </trkpt>
      <trkpt lat="44.174885870888829" lon="4.689157828688622">
        <ele>101.56</ele>
        <time>2017-10-06T15:38:40Z</time>
      </trkpt>
      <trkpt lat="44.175048395991325" lon="4.688637983053923">
        <ele>106.84</ele>
        <time>2017-10-06T15:39:34Z</time>
      </trkpt>
      <trkpt lat="44.175681062042713" lon="4.687577420845628">
        <ele>108.77</ele>
        <time>2017-10-06T15:40:26Z</time>
      </trkpt>
      <trkpt lat="44.17614265345037" lon="4.686679886654019">
        <ele>113.09</ele>
        <time>2017-10-06T15:42:12Z</time>
      </trkpt>
      <trkpt lat="44.176356056705117" lon="4.6852355170995">
        <ele>119.34</ele>
        <time>2017-10-06T15:43:09Z</time>
      </trkpt>
      <trkpt lat="44.17588809505105" lon="4.684269167482853">
        <ele>126.06999999999999</ele>
        <time>2017-10-06T15:44:56Z</time>
      </trkpt>
      <trkpt lat="44.176241979002953" lon="4.684114353731275">
        <ele>127.03</ele>
        <time>2017-10-06T15:48:37Z</time>
      </trkpt>
      <trkpt lat="44.17682820931077" lon="4.682102361693978">
        <ele>140.49000000000001</ele>
        <time>2017-10-06T15:51:12Z</time>
      </trkpt>
      <trkpt lat="44.176643388345838" lon="4.680584985762835">
        <ele>149.62</ele>
        <time>2017-10-06T15:52:19Z</time>
      </trkpt>
      <trkpt lat="44.17624625377357" lon="4.679002230986953">
        <ele>163.08000000000001</ele>
        <time>2017-10-06T15:53:51Z</time>
      </trkpt>
      <trkpt lat="44.175503114238381" lon="4.677915014326572">
        <ele>165.47999999999999</ele>
        <time>2017-10-06T15:55:23Z</time>
      </trkpt>
      <trkpt lat="44.174698200076818" lon="4.676911532878876">
        <ele>172.69</ele>
        <time>2017-10-06T15:56:18Z</time>
      </trkpt>
      <trkpt lat="44.175340672954917" lon="4.676282722502947">
        <ele>187.59</ele>
        <time>2017-10-06T15:57:50Z</time>
      </trkpt>
      <trkpt lat="44.175947606563568" lon="4.675286449491978">
        <ele>190</ele>
        <time>2017-10-06T15:58:49Z</time>
      </trkpt>
      <trkpt lat="44.175599338486791" lon="4.674110552296042">
        <ele>194.31999999999999</ele>
        <time>2017-10-06T16:00:20Z</time>
      </trkpt>
      <trkpt lat="44.175732862204313" lon="4.67350403778255">
        <ele>195.77000000000001</ele>
        <time>2017-10-06T16:01:03Z</time>
      </trkpt>
      <trkpt lat="44.17650961317122" lon="4.672963237389922">
        <ele>202.97999999999999</ele>
        <time>2017-10-06T16:01:50Z</time>
      </trkpt>
      <trkpt lat="44.176387656480074" lon="4.671782897785306">
        <ele>203.94</ele>
        <time>2017-10-06T16:02:30Z</time>
      </trkpt>
      <trkpt lat="44.175982140004635" lon="4.670633319765329">
        <ele>205.38</ele>
        <time>2017-10-06T16:03:13Z</time>
      </trkpt>
      <trkpt lat="44.175170352682471" lon="4.66990920715034">
        <ele>207.30000000000001</ele>
        <time>2017-10-06T16:03:58Z</time>
      </trkpt>
      <trkpt lat="44.174321014434099" lon="4.669741485267878">
        <ele>211.15000000000001</ele>
        <time>2017-10-06T16:05:14Z</time>
      </trkpt>
      <trkpt lat="44.173385845497251" lon="4.670341378077865">
        <ele>228.44999999999999</ele>
        <time>2017-10-06T16:11:27Z</time>
      </trkpt>
      <trkpt lat="44.173330524936318" lon="4.671584079042077">
        <ele>214.03</ele>
        <time>2017-10-06T16:14:33Z</time>
      </trkpt>
      <trkpt lat="44.172216737642884" lon="4.671450555324554">
        <ele>188.56</ele>
        <time>2017-10-06T16:16:58Z</time>
      </trkpt>
      <trkpt lat="44.171832259744406" lon="4.671461703255773">
        <ele>180.38</ele>
        <time>2017-10-06T16:18:59Z</time>
      </trkpt>
      <trkpt lat="44.172531478106976" lon="4.672331241890788">
        <ele>172.21000000000001</ele>
        <time>2017-10-06T16:19:14Z</time>
      </trkpt>
      <trkpt lat="44.173336056992412" lon="4.67296315357089">
        <ele>155.87</ele>
        <time>2017-10-06T16:19:33Z</time>
      </trkpt>
      <trkpt lat="44.172676904127002" lon="4.673694474622607">
        <ele>144.81999999999999</ele>
        <time>2017-10-06T16:19:57Z</time>
      </trkpt>
      <trkpt lat="44.17167610488832" lon="4.673953810706735">
        <ele>134.24000000000001</ele>
        <time>2017-10-06T16:20:09Z</time>
      </trkpt>
      <trkpt lat="44.170769099146128" lon="4.674299480393529">
        <ele>124.63</ele>
        <time>2017-10-06T16:20:18Z</time>
      </trkpt>
      <trkpt lat="44.169869301840663" lon="4.674719665199518">
        <ele>124.15000000000001</ele>
        <time>2017-10-06T16:20:27Z</time>
      </trkpt>
      <trkpt lat="44.168980987742543" lon="4.674425628036261">
        <ele>116.94</ele>
        <time>2017-10-06T16:20:38Z</time>
      </trkpt>
      <trkpt lat="44.168134164065123" lon="4.674103930592537">
        <ele>116.45999999999999</ele>
        <time>2017-10-06T16:21:56Z</time>
      </trkpt>
      <trkpt lat="44.16723445057869" lon="4.674382545053959">
        <ele>108.29000000000001</ele>
        <time>2017-10-06T16:22:18Z</time>
      </trkpt>
      <trkpt lat="44.166249157860875" lon="4.674523696303368">
        <ele>103.95999999999999</ele>
        <time>2017-10-06T16:22:31Z</time>
      </trkpt>
      <trkpt lat="44.16552328504622" lon="4.673593137413263">
        <ele>101.56</ele>
        <time>2017-10-06T16:22:53Z</time>
      </trkpt>
      <trkpt lat="44.164828006178141" lon="4.67273784801364">
        <ele>97.709999999999994</ele>
        <time>2017-10-06T16:23:12Z</time>
      </trkpt>
      <trkpt lat="44.164179246872663" lon="4.671757332980633">
        <ele>98.670000000000002</ele>
        <time>2017-10-06T16:24:06Z</time>
      </trkpt>
      <trkpt lat="44.164000879973173" lon="4.670405415818095">
        <ele>101.56</ele>
        <time>2017-10-06T16:24:58Z</time>
      </trkpt>
      <trkpt lat="44.164257030934095" lon="4.669216610491276">
        <ele>111.17</ele>
        <time>2017-10-06T16:26:14Z</time>
      </trkpt>
      <trkpt lat="44.164225682616234" lon="4.667582307010889">
        <ele>118.38</ele>
        <time>2017-10-06T16:28:08Z</time>
      </trkpt>
      <trkpt lat="44.164361469447613" lon="4.665904082357884">
        <ele>109.73</ele>
        <time>2017-10-06T16:29:08Z</time>
      </trkpt>
      <trkpt lat="44.163789823651314" lon="4.665292957797647">
        <ele>102.04000000000001</ele>
        <time>2017-10-06T16:30:18Z</time>
      </trkpt>
      <trkpt lat="44.163441387936473" lon="4.665161361917853">
        <ele>96.269999999999996</ele>
        <time>2017-10-06T16:31:12Z</time>
      </trkpt>
      <trkpt lat="44.162650220096111" lon="4.665223388001323">
        <ele>96.75</ele>
        <time>2017-10-06T16:31:53Z</time>
      </trkpt>
      <trkpt lat="44.161713793873787" lon="4.665319109335542">
        <ele>96.75</ele>
        <time>2017-10-06T16:32:34Z</time>
      </trkpt>
      <trkpt lat="44.162352913990617" lon="4.666440021246672">
        <ele>87.620000000000005</ele>
        <time>2017-10-06T16:33:05Z</time>
      </trkpt>
      <trkpt lat="44.161908254027367" lon="4.666655268520117">
        <ele>83.290000000000006</ele>
        <time>2017-10-06T16:33:34Z</time>
      </trkpt>
      <trkpt lat="44.160885326564312" lon="4.666332900524139">
        <ele>84.730000000000004</ele>
        <time>2017-10-06T16:34:12Z</time>
      </trkpt>
      <trkpt lat="44.160794885829091" lon="4.665188519284129">
        <ele>80.890000000000001</ele>
        <time>2017-10-06T16:34:38Z</time>
      </trkpt>
      <trkpt lat="44.161105351522565" lon="4.664028212428093">
        <ele>72.719999999999999</ele>
        <time>2017-10-06T16:35:01Z</time>
      </trkpt>
      <trkpt lat="44.160506129264832" lon="4.664902612566948">
        <ele>65.030000000000001</ele>
        <time>2017-10-06T16:36:05Z</time>
      </trkpt>
      <trkpt lat="44.160216869786382" lon="4.666229551658034">
        <ele>59.740000000000002</ele>
        <time>2017-10-06T16:36:38Z</time>
      </trkpt>
      <trkpt lat="44.159605661407113" lon="4.666545381769538">
        <ele>50.609999999999999</ele>
        <time>2017-10-06T16:36:57Z</time>
      </trkpt>
      <trkpt lat="44.158751461654902" lon="4.666698183864355">
        <ele>48.68</ele>
        <time>2017-10-06T16:37:18Z</time>
      </trkpt>
      <trkpt lat="44.158195070922375" lon="4.667753884568811">
        <ele>46.280000000000001</ele>
        <time>2017-10-06T16:37:39Z</time>
      </trkpt>
      <trkpt lat="44.157689893618226" lon="4.668853087350726">
        <ele>44.840000000000003</ele>
        <time>2017-10-06T16:37:59Z</time>
      </trkpt>
      <trkpt lat="44.157220087945461" lon="4.670030660927296">
        <ele>44.359999999999999</ele>
        <time>2017-10-06T16:38:20Z</time>
      </trkpt>
      <trkpt lat="44.156713653355837" lon="4.671094324439764">
        <ele>43.399999999999999</ele>
        <time>2017-10-06T16:38:39Z</time>
      </trkpt>
      <trkpt lat="44.156052572652698" lon="4.672077605500817">
        <ele>41.950000000000003</ele>
        <time>2017-10-06T16:38:57Z</time>
      </trkpt>
      <trkpt lat="44.155384786427021" lon="4.673008834943175">
        <ele>40.990000000000002</ele>
        <time>2017-10-06T16:39:13Z</time>
      </trkpt>
      <trkpt lat="44.15496502071619" lon="4.674149947240949">
        <ele>41.950000000000003</ele>
        <time>2017-10-06T16:39:30Z</time>
      </trkpt>
      <trkpt lat="44.154471661895514" lon="4.675238505005837">
        <ele>40.030000000000001</ele>
        <time>2017-10-06T16:39:50Z</time>
      </trkpt>
      <trkpt lat="44.153767665848136" lon="4.676082730293274">
        <ele>38.109999999999999</ele>
        <time>2017-10-06T16:40:06Z</time>
      </trkpt>
      <trkpt lat="44.152925116941333" lon="4.676588494330645">
        <ele>36.670000000000002</ele>
        <time>2017-10-06T16:40:21Z</time>
      </trkpt>
      <trkpt lat="44.1521031036973" lon="4.677146058529615">
        <ele>36.189999999999998</ele>
        <time>2017-10-06T16:40:36Z</time>
      </trkpt>
      <trkpt lat="44.151275977492332" lon="4.677767911925912">
        <ele>35.229999999999997</ele>
        <time>2017-10-06T16:40:51Z</time>
      </trkpt>
      <trkpt lat="44.150411719456315" lon="4.678342407569289">
        <ele>34.259999999999998</ele>
        <time>2017-10-06T16:41:06Z</time>
      </trkpt>
      <trkpt lat="44.149777125567198" lon="4.679325604811311">
        <ele>36.189999999999998</ele>
        <time>2017-10-06T16:41:22Z</time>
      </trkpt>
      <trkpt lat="44.14978651329875" lon="4.680638210847974">
        <ele>35.710000000000001</ele>
        <time>2017-10-06T16:41:39Z</time>
      </trkpt>
    </trkseg>
  </trk>

</gpx>


Partager le fichier

Télécharger RANDO DES ROIS 2018.gpx

Télécharger le fichier (27 Ko)